createdAt,value
2022-12-08T09:18:21.164Z,140798.56
2022-12-08T09:23:35.244Z,140787.53
2022-12-08T09:28:40.117Z,140852.69
2022-12-08T09:33:44.674Z,140851.47
2022-12-08T09:38:51.172Z,140868.69
2022-12-08T09:44:08.256Z,140745.75
2022-12-08T09:49:17.452Z,140919.13
2022-12-08T09:54:26.881Z,140888.34
2022-12-08T09:59:32.731Z,140808.44
2022-12-08T10:04:39.401Z,140914.16
2022-12-08T10:09:49.700Z,140903.13
2022-12-08T10:15:02.088Z,140858.81
2022-12-08T10:20:14.203Z,140836.72
2022-12-08T10:25:22.269Z,140621.66
2022-12-08T10:30:26.492Z,140803.50
2022-12-08T10:35:45.685Z,140750.72
2022-12-08T10:40:58.369Z,140727.34
2022-12-08T10:46:13.591Z,140807.22
2022-12-08T10:51:27.335Z,140760.53
2022-12-08T10:56:37.675Z,140665.91
2022-12-08T11:01:48.743Z,140869.91
2022-12-08T11:06:54.143Z,140879.75
2022-12-08T11:11:59.997Z,140872.38
2022-12-08T11:17:09.548Z,140853.91
2022-12-08T11:22:23.604Z,140804.72
2022-12-08T11:27:29.670Z,140876.06
2022-12-08T11:32:34.660Z,140882.19
2022-12-08T11:37:40.843Z,140755.63
2022-12-08T11:42:54.915Z,140561.47
2022-12-08T11:48:21.969Z,140540.59
2022-12-08T11:53:35.340Z,140648.69
2022-12-08T11:58:53.780Z,140318.44
2022-12-08T12:04:10.767Z,140835.50
2022-12-08T12:09:27.799Z,140834.28
2022-12-08T12:14:53.486Z,140825.63
2022-12-08T12:20:04.032Z,140734.72
2022-12-08T12:25:19.171Z,140861.28
2022-12-08T12:30:26.950Z,140707.69
2022-12-08T12:35:35.791Z,140916.63
2022-12-08T12:40:44.669Z,140906.81
2022-12-08T12:45:50.374Z,140806.00
2022-12-08T12:51:36.639Z,140926.50
2022-12-08T12:56:52.566Z,140341.75
2022-12-08T13:01:58.452Z,140863.78
2022-12-08T13:07:02.554Z,140941.22
2022-12-08T13:12:12.488Z,140946.19
2022-12-08T13:17:27.049Z,140745.75
2022-12-08T13:22:54.070Z,140914.16
2022-12-08T13:27:57.935Z,140931.41
2022-12-08T13:33:19.785Z,140846.53
2022-12-08T13:38:30.186Z,140801.03
2022-12-08T13:44:10.246Z,140874.84
2022-12-08T13:55:25.845Z,140636.38
2022-12-08T14:00:15.532Z,140793.66
2022-12-08T14:05:47.703Z,140600.78
2022-12-08T14:10:55.810Z,140823.19
2022-12-08T14:16:00.082Z,140830.53
2022-12-08T14:21:23.085Z,140737.19
2022-12-08T14:26:47.416Z,140817.03
2022-12-08T14:31:51.191Z,140810.91
2022-12-08T14:36:56.452Z,140825.63
2022-12-08T14:42:01.787Z,140711.34
2022-12-08T14:47:08.931Z,140706.44
2022-12-08T14:52:14.792Z,140694.19
2022-12-08T14:57:19.012Z,140837.97
2022-12-08T15:02:28.438Z,140834.28
2022-12-08T15:07:48.964Z,140836.72
2022-12-08T15:13:02.587Z,140761.75
2022-12-08T15:18:16.143Z,140629.03
2022-12-08T15:23:28.134Z,140776.50
2022-12-08T15:28:31.931Z,140649.94
2022-12-08T15:33:35.630Z,140659.75
2022-12-08T15:38:44.414Z,140652.38
2022-12-08T15:43:48.113Z,140708.91
2022-12-08T15:48:57.769Z,140663.41
2022-12-08T15:54:03.246Z,140469.41
2022-12-08T15:59:06.747Z,140593.41
2022-12-08T16:04:59.930Z,140582.38
2022-12-08T16:09:41.724Z,140565.16
2022-12-08T16:20:14.295Z,140265.69
2022-12-08T16:25:20.928Z,140508.66
2022-12-08T16:30:25.741Z,140501.31
2022-12-08T16:35:32.214Z,140222.75
2022-12-08T16:40:58.705Z,140470.66
2022-12-08T16:46:02.912Z,140464.50
2022-12-08T16:51:10.218Z,140452.22
2022-12-08T16:56:19.832Z,140439.94
2022-12-08T17:01:24.160Z,140437.47
2022-12-08T17:06:28.095Z,140419.09
2022-12-08T17:11:43.687Z,140159.00
2022-12-08T17:16:48.019Z,140401.88
2022-12-08T17:21:51.769Z,140400.66
2022-12-08T17:26:57.458Z,140393.31
2022-12-08T17:32:02.133Z,139831.91
2022-12-08T17:37:06.213Z,139958.00
2022-12-08T17:42:13.505Z,140339.31
2022-12-08T17:47:16.937Z,140295.13
2022-12-08T17:52:27.179Z,139900.47
2022-12-08T17:57:35.740Z,140123.47
2022-12-08T18:02:39.635Z,140277.97
2022-12-08T18:07:43.823Z,140268.13
2022-12-08T18:12:51.654Z,139890.69
2022-12-08T18:17:57.556Z,140238.69
2022-12-08T18:23:01.440Z,140224.00
2022-12-08T18:28:07.720Z,139916.41
2022-12-08T18:33:11.566Z,140222.75
2022-12-08T18:38:20.603Z,139894.34
2022-12-08T18:43:26.873Z,140168.84
2022-12-08T18:48:31.647Z,140165.19
2022-12-08T18:53:35.670Z,139675.22
2022-12-08T18:58:41.009Z,140179.88
2022-12-08T19:03:58.507Z,140197.06
2022-12-08T19:09:12.528Z,140232.56
2022-12-08T19:14:25.765Z,140237.47
2022-12-08T19:19:31.755Z,140203.13
2022-12-08T19:24:36.742Z,140255.88
2022-12-08T19:29:43.911Z,140277.97
2022-12-08T19:34:48.071Z,140098.94
2022-12-08T19:40:12.160Z,140274.25
2022-12-08T19:45:23.510Z,140271.78
2022-12-08T19:50:40.811Z,140259.56
2022-12-08T19:55:45.507Z,140127.13
2022-12-08T20:00:51.030Z,140253.44
2022-12-08T20:05:54.966Z,140167.63
2022-12-08T20:11:01.171Z,140089.16
2022-12-08T20:16:11.383Z,140174.97
2022-12-08T20:21:15.754Z,139976.38
2022-12-08T20:26:26.142Z,140094.03
2022-12-08T20:31:33.735Z,140064.63
2022-12-08T20:36:39.395Z,140060.94
2022-12-08T20:41:52.368Z,140026.66
2022-12-08T20:47:00.808Z,140013.13
2022-12-08T20:52:06.702Z,140003.34
2022-12-08T20:57:12.927Z,139992.28
2022-12-08T21:02:18.479Z,139965.34
2022-12-08T21:07:23.335Z,139962.88
2022-12-08T21:12:27.493Z,139918.84
2022-12-08T21:17:33.818Z,139555.34
2022-12-08T21:22:39.885Z,139942.09
2022-12-08T21:27:46.789Z,139937.19
2022-12-08T21:32:52.641Z,139500.31
2022-12-08T21:37:56.495Z,139862.50
2022-12-08T21:43:00.618Z,139863.72
2022-12-08T21:48:12.857Z,139871.06
2022-12-08T21:53:16.857Z,139829.44
2022-12-08T21:58:20.953Z,139791.47
2022-12-08T22:03:29.968Z,139899.25
2022-12-08T22:08:34.362Z,139807.41
2022-12-08T22:13:40.194Z,139696.00
2022-12-08T22:18:45.507Z,139890.69
2022-12-08T22:23:49.771Z,139899.25
2022-12-08T22:28:57.813Z,139893.13
